Terminal Aerodrome Forecast
Issued by NWS

Home | Current Version | Previous Version | Text Only | Print | Product List | Glossary On
Versions: 1 2 3 4 5 6 7 8 9 10 11 12 13
000
FTUS44 KLZK 311737 AAA
TAFHOT
TAF AMD
KHOT 311737Z 3118/0118 18006KT P6SM VCTS SCT050CB SCT250
      TEMPO 3118/3120 VRB15G25KT 3SM TSRA SCT020CB BKN050
     FM312000 14005KT P6SM VCSH SCT050 BKN250
     FM010100 VRB03KT P6SM SCT250
     FM010900 VRB02KT 5SM BR FEW250
     FM011400 VRB03KT P6SM FEW250=

USA.gov is the U.S. government's official web portal to all federal, state and local government web resources and services.